Terminal Aerodrome Forecast
Issued by NWS

Home | Current Version | Previous Version | Graphics & Text | Print | Product List | Glossary On
Versions: 1 2 3 4 5 6 7 8 9 10 11 12 13 14 15 16 17 18 19 20 21 22 23 24 25 26 27
000
FTUS43 KABR 192103 AAA
TAFATY
TAF AMD
KATY 192103Z 1921/2018 06015KT P6SM BKN110 OVC150
     FM200300 06006KT P6SM OVC110
     FM201000 05010KT P6SM -SHRA OVC060
     FM201200 04010KT P6SM SHRA OVC030
     FM201500 03012G19KT 5SM SHRA OVC015=

USA.gov is the U.S. government's official web portal to all federal, state and local government web resources and services.